sensor_id;sensor_type;location;lat;lon;timestamp;pressure;altitude;pressure_sealevel;temperature;humidity
13414;BME280;6778;48.136;11.386;2022-11-06T00:02:13;95782.88;;;6.11;84.96
13414;BME280;6778;48.136;11.386;2022-11-06T00:04:42;95782.19;;;6.17;85.56
13414;BME280;6778;48.136;11.386;2022-11-06T00:07:13;95780.19;;;6.19;85.55
13414;BME280;6778;48.136;11.386;2022-11-06T00:09:39;95785.59;;;6.17;85.46
13414;BME280;6778;48.136;11.386;2022-11-06T00:12:07;95787.63;;;6.22;85.57
13414;BME280;6778;48.136;11.386;2022-11-06T00:14:35;95786.50;;;6.24;85.57
13414;BME280;6778;48.136;11.386;2022-11-06T00:17:04;95781.09;;;6.26;85.45
13414;BME280;6778;48.136;11.386;2022-11-06T00:19:32;95777.78;;;6.17;85.35
13414;BME280;6778;48.136;11.386;2022-11-06T00:22:01;95775.41;;;6.08;86.06
13414;BME280;6778;48.136;11.386;2022-11-06T00:24:32;95766.72;;;6.00;85.53
13414;BME280;6778;48.136;11.386;2022-11-06T00:27:00;95767.06;;;5.97;85.75
13414;BME280;6778;48.136;11.386;2022-11-06T00:29:29;95766.59;;;5.94;86.39
13414;BME280;6778;48.136;11.386;2022-11-06T00:31:57;95765.00;;;5.93;86.64
13414;BME280;6778;48.136;11.386;2022-11-06T00:34:26;95755.25;;;5.87;86.42
13414;BME280;6778;48.136;11.386;2022-11-06T00:36:54;95758.84;;;5.86;86.87
13414;BME280;6778;48.136;11.386;2022-11-06T00:39:23;95755.44;;;5.85;86.57
13414;BME280;6778;48.136;11.386;2022-11-06T00:41:54;95752.34;;;5.90;86.51
13414;BME280;6778;48.136;11.386;2022-11-06T00:44:22;95753.13;;;5.90;86.28
13414;BME280;6778;48.136;11.386;2022-11-06T00:46:50;95751.19;;;5.92;86.50
13414;BME280;6778;48.136;11.386;2022-11-06T00:49:19;95761.59;;;5.92;86.48
13414;BME280;6778;48.136;11.386;2022-11-06T00:51:47;95758.19;;;5.92;86.57
13414;BME280;6778;48.136;11.386;2022-11-06T00:54:16;95757.38;;;5.91;86.84
13414;BME280;6778;48.136;11.386;2022-11-06T00:56:44;95770.19;;;5.93;86.60
13414;BME280;6778;48.136;11.386;2022-11-06T00:59:17;95767.06;;;5.97;86.76
13414;BME280;6778;48.136;11.386;2022-11-06T01:01:50;95766.53;;;6.02;86.18
13414;BME280;6778;48.136;11.386;2022-11-06T01:04:21;95761.31;;;6.02;86.05
13414;BME280;6778;48.136;11.386;2022-11-06T01:06:51;95755.69;;;5.98;85.88
13414;BME280;6778;48.136;11.386;2022-11-06T01:09:23;95754.59;;;5.93;85.61
13414;BME280;6778;48.136;11.386;2022-11-06T01:11:56;95752.47;;;5.96;85.55
13414;BME280;6778;48.136;11.386;2022-11-06T01:14:28;95752.28;;;5.98;85.57
13414;BME280;6778;48.136;11.386;2022-11-06T01:16:56;95751.47;;;5.97;85.48
13414;BME280;6778;48.136;11.386;2022-11-06T01:19:25;95757.47;;;5.98;85.34
13414;BME280;6778;48.136;11.386;2022-11-06T01:21:54;95746.63;;;5.94;85.35
13414;BME280;6778;48.136;11.386;2022-11-06T01:24:27;95747.47;;;5.87;85.35
13414;BME280;6778;48.136;11.386;2022-11-06T01:26:56;95737.59;;;5.82;85.41
13414;BME280;6778;48.136;11.386;2022-11-06T01:29:25;95735.78;;;5.68;85.62
13414;BME280;6778;48.136;11.386;2022-11-06T01:31:56;95737.88;;;5.50;87.38
13414;BME280;6778;48.136;11.386;2022-11-06T01:34:25;95722.41;;;5.33;88.10
13414;BME280;6778;48.136;11.386;2022-11-06T01:36:53;95727.41;;;5.35;88.42
13414;BME280;6778;48.136;11.386;2022-11-06T01:39:21;95721.91;;;5.38;87.86
13414;BME280;6778;48.136;11.386;2022-11-06T01:41:52;95715.72;;;5.39;88.02
13414;BME280;6778;48.136;11.386;2022-11-06T01:47:45;95716.63;;;5.46;87.02
13414;BME280;6778;48.136;11.386;2022-11-06T01:50:18;95717.09;;;5.50;86.65
13414;BME280;6778;48.136;11.386;2022-11-06T01:52:49;95719.41;;;5.44;86.09
13414;BME280;6778;48.136;11.386;2022-11-06T01:55:23;95721.66;;;5.47;86.42
13414;BME280;6778;48.136;11.386;2022-11-06T01:57:59;95718.06;;;5.48;85.83
13414;BME280;6778;48.136;11.386;2022-11-06T02:00:28;95725.16;;;5.55;85.86
13414;BME280;6778;48.136;11.386;2022-11-06T02:03:02;95728.06;;;5.60;85.79
13414;BME280;6778;48.136;11.386;2022-11-06T02:05:31;95720.44;;;5.58;85.61
13414;BME280;6778;48.136;11.386;2022-11-06T02:08:04;95720.25;;;5.60;85.64
13414;BME280;6778;48.136;11.386;2022-11-06T02:10:37;95716.03;;;5.59;85.70
13414;BME280;6778;48.136;11.386;2022-11-06T02:13:15;95717.38;;;5.55;85.86
13414;BME280;6778;48.136;11.386;2022-11-06T02:15:50;95712.81;;;5.34;85.41
13414;BME280;6778;48.136;11.386;2022-11-06T02:18:46;95700.72;;;5.26;86.09
13414;BME280;6778;48.136;11.386;2022-11-06T02:27:19;95701.19;;;5.30;85.26
13414;BME280;6778;48.136;11.386;2022-11-06T02:29:57;95696.31;;;5.27;85.16
13414;BME280;6778;48.136;11.386;2022-11-06T02:32:31;95692.97;;;5.18;85.34
13414;BME280;6778;48.136;11.386;2022-11-06T02:35:12;95697.69;;;5.14;84.84
13414;BME280;6778;48.136;11.386;2022-11-06T02:37:50;95692.94;;;5.03;83.85
13414;BME280;6778;48.136;11.386;2022-11-06T02:40:29;95691.16;;;5.04;81.93
13414;BME280;6778;48.136;11.386;2022-11-06T02:43:06;95693.25;;;4.77;81.68
13414;BME280;6778;48.136;11.386;2022-11-06T02:45:42;95681.06;;;4.55;83.68
13414;BME280;6778;48.136;11.386;2022-11-06T02:48:14;95681.59;;;4.42;84.75
13414;BME280;6778;48.136;11.386;2022-11-06T02:50:49;95682.13;;;4.29;85.73
13414;BME280;6778;48.136;11.386;2022-11-06T02:53:22;95691.09;;;4.10;87.26
13414;BME280;6778;48.136;11.386;2022-11-06T02:55:56;95687.03;;;4.16;87.64
13414;BME280;6778;48.136;11.386;2022-11-06T02:58:37;95681.50;;;4.27;87.07
13414;BME280;6778;48.136;11.386;2022-11-06T03:01:15;95682.28;;;4.36;86.50
13414;BME280;6778;48.136;11.386;2022-11-06T03:03:50;95682.09;;;4.37;85.81
13414;BME280;6778;48.136;11.386;2022-11-06T03:06:28;95680.78;;;4.42;85.58
13414;BME280;6778;48.136;11.386;2022-11-06T03:09:04;95685.97;;;4.42;85.38
13414;BME280;6778;48.136;11.386;2022-11-06T03:11:36;95680.75;;;4.50;84.91
13414;BME280;6778;48.136;11.386;2022-11-06T03:14:16;95673.41;;;4.53;84.85
13414;BME280;6778;48.136;11.386;2022-11-06T03:16:54;95667.28;;;4.46;84.38
13414;BME280;6778;48.136;11.386;2022-11-06T03:19:29;95670.88;;;4.45;84.73
13414;BME280;6778;48.136;11.386;2022-11-06T03:22:06;95680.56;;;4.51;84.68
13414;BME280;6778;48.136;11.386;2022-11-06T03:24:44;95679.41;;;4.54;84.30
13414;BME280;6778;48.136;11.386;2022-11-06T03:27:19;95687.03;;;4.55;84.19
13414;BME280;6778;48.136;11.386;2022-11-06T03:30:03;95674.88;;;4.56;84.39
13414;BME280;6778;48.136;11.386;2022-11-06T03:32:40;95673.72;;;4.58;84.50
13414;BME280;6778;48.136;11.386;2022-11-06T03:35:19;95679.72;;;4.59;84.62
13414;BME280;6778;48.136;11.386;2022-11-06T03:37:56;95685.59;;;4.53;84.46
13414;BME280;6778;48.136;11.386;2022-11-06T03:40:31;95681.84;;;4.55;84.68
13414;BME280;6778;48.136;11.386;2022-11-06T03:43:06;95675.75;;;4.48;84.54
13414;BME280;6778;48.136;11.386;2022-11-06T03:45:42;95681.72;;;4.49;84.71
13414;BME280;6778;48.136;11.386;2022-11-06T03:48:15;95673.59;;;4.52;84.79
13414;BME280;6778;48.136;11.386;2022-11-06T03:50:53;95674.94;;;4.48;84.74
13414;BME280;6778;48.136;11.386;2022-11-06T03:53:28;95673.81;;;4.42;84.81
13414;BME280;6778;48.136;11.386;2022-11-06T03:56:04;95675.13;;;4.38;84.59
13414;BME280;6778;48.136;11.386;2022-11-06T03:58:38;95664.78;;;4.30;84.89
13414;BME280;6778;48.136;11.386;2022-11-06T04:01:15;95669.81;;;4.31;85.00
13414;BME280;6778;48.136;11.386;2022-11-06T04:03:50;95671.44;;;4.24;84.40
13414;BME280;6778;48.136;11.386;2022-11-06T04:06:26;95668.72;;;4.18;84.36
13414;BME280;6778;48.136;11.386;2022-11-06T04:09:02;95660.31;;;4.16;83.99
13414;BME280;6778;48.136;11.386;2022-11-06T04:11:45;95662.59;;;4.10;83.84
13414;BME280;6778;48.136;11.386;2022-11-06T04:14:31;95668.63;;;4.03;83.73
13414;BME280;6778;48.136;11.386;2022-11-06T04:17:12;95662.66;;;3.86;83.40
13414;BME280;6778;48.136;11.386;2022-11-06T04:19:48;95668.19;;;3.83;83.68
13414;BME280;6778;48.136;11.386;2022-11-06T04:22:33;95671.94;;;3.80;83.62
13414;BME280;6778;48.136;11.386;2022-11-06T04:25:19;95666.59;;;3.74;83.53
13414;BME280;6778;48.136;11.386;2022-11-06T04:28:17;95659.94;;;3.71;83.94
13414;BME280;6778;48.136;11.386;2022-11-06T04:31:03;95668.38;;;3.73;84.14
13414;BME280;6778;48.136;11.386;2022-11-06T04:33:44;95661.25;;;3.75;84.25
13414;BME280;6778;48.136;11.386;2022-11-06T04:36:35;95656.06;;;3.75;84.41
13414;BME280;6778;48.136;11.386;2022-11-06T04:39:17;95663.19;;;3.81;84.44
13414;BME280;6778;48.136;11.386;2022-11-06T04:41:57;95662.03;;;3.84;84.42
13414;BME280;6778;48.136;11.386;2022-11-06T04:44:32;95659.41;;;3.92;84.98
13414;BME280;6778;48.136;11.386;2022-11-06T04:47:06;95657.63;;;4.01;84.69
13414;BME280;6778;48.136;11.386;2022-11-06T04:49:42;95650.47;;;4.03;85.12
13414;BME280;6778;48.136;11.386;2022-11-06T04:52:14;95643.34;;;4.05;85.76
13414;BME280;6778;48.136;11.386;2022-11-06T04:54:45;95652.84;;;4.13;86.08
13414;BME280;6778;48.136;11.386;2022-11-06T04:57:14;95657.25;;;4.12;86.50
13414;BME280;6778;48.136;11.386;2022-11-06T04:59:42;95643.00;;;4.08;86.17
13414;BME280;6778;48.136;11.386;2022-11-06T05:02:13;95648.19;;;4.08;86.26
13414;BME280;6778;48.136;11.386;2022-11-06T05:04:44;95652.28;;;3.86;86.36
13414;BME280;6778;48.136;11.386;2022-11-06T05:07:13;95649.22;;;3.91;87.57
13414;BME280;6778;48.136;11.386;2022-11-06T05:09:45;95649.84;;;4.01;88.75
13414;BME280;6778;48.136;11.386;2022-11-06T05:12:16;95639.13;;;4.04;88.69
13414;BME280;6778;48.136;11.386;2022-11-06T05:14:45;95643.97;;;4.15;88.20
13414;BME280;6778;48.136;11.386;2022-11-06T05:17:20;95625.94;;;4.22;87.67
13414;BME280;6778;48.136;11.386;2022-11-06T05:19:52;95630.78;;;4.25;86.91
13414;BME280;6778;48.136;11.386;2022-11-06T05:22:20;95626.25;;;4.27;86.52
13414;BME280;6778;48.136;11.386;2022-11-06T05:25:03;95617.63;;;4.26;85.36
13414;BME280;6778;48.136;11.386;2022-11-06T05:27:32;95616.56;;;4.13;84.41
13414;BME280;6778;48.136;11.386;2022-11-06T05:30:00;95612.50;;;4.18;84.13
13414;BME280;6778;48.136;11.386;2022-11-06T05:32:29;95613.66;;;4.16;83.76
13414;BME280;6778;48.136;11.386;2022-11-06T05:35:00;95617.56;;;4.11;83.91
13414;BME280;6778;48.136;11.386;2022-11-06T05:37:31;95618.22;;;4.05;83.75
13414;BME280;6778;48.136;11.386;2022-11-06T05:40:02;95615.47;;;4.07;83.57
13414;BME280;6778;48.136;11.386;2022-11-06T05:42:33;95615.31;;;4.08;83.81
13414;BME280;6778;48.136;11.386;2022-11-06T05:45:01;95613.16;;;4.12;83.79
13414;BME280;6778;48.136;11.386;2022-11-06T05:47:30;95608.78;;;4.13;83.20
13414;BME280;6778;48.136;11.386;2022-11-06T05:50:01;95604.47;;;4.05;83.20
13414;BME280;6778;48.136;11.386;2022-11-06T05:52:30;95606.06;;;4.06;83.20
13414;BME280;6778;48.136;11.386;2022-11-06T05:54:58;95604.59;;;4.11;83.23
13414;BME280;6778;48.136;11.386;2022-11-06T05:57:26;95591.31;;;4.15;82.75
13414;BME280;6778;48.136;11.386;2022-11-06T05:59:55;95592.97;;;4.07;81.57
13414;BME280;6778;48.136;11.386;2022-11-06T06:02:24;95589.88;;;4.04;81.53
13414;BME280;6778;48.136;11.386;2022-11-06T06:04:52;95591.47;;;4.13;81.66
13414;BME280;6778;48.136;11.386;2022-11-06T06:07:24;95583.72;;;4.05;81.64
13414;BME280;6778;48.136;11.386;2022-11-06T06:09:54;95582.28;;;4.02;81.66
13414;BME280;6778;48.136;11.386;2022-11-06T06:12:23;95580.53;;;3.95;81.83
13414;BME280;6778;48.136;11.386;2022-11-06T06:14:53;95588.03;;;3.81;81.73
13414;BME280;6778;48.136;11.386;2022-11-06T06:17:22;95592.16;;;3.60;82.73
13414;BME280;6778;48.136;11.386;2022-11-06T06:19:50;95588.59;;;3.61;83.32
13414;BME280;6778;48.136;11.386;2022-11-06T06:22:19;95581.97;;;3.66;83.44
13414;BME280;6778;48.136;11.386;2022-11-06T06:24:52;95572.06;;;3.70;83.41
13414;BME280;6778;48.136;11.386;2022-11-06T06:27:21;95560.53;;;3.80;83.35
13414;BME280;6778;48.136;11.386;2022-11-06T06:29:51;95564.06;;;3.88;83.52
13414;BME280;6778;48.136;11.386;2022-11-06T06:32:22;95564.22;;;3.86;83.98
13414;BME280;6778;48.136;11.386;2022-11-06T06:34:53;95566.44;;;3.97;83.89
13414;BME280;6778;48.136;11.386;2022-11-06T06:37:21;95561.63;;;4.17;83.79
13414;BME280;6778;48.136;11.386;2022-11-06T06:39:58;95562.50;;;4.41;83.26
13414;BME280;6778;48.136;11.386;2022-11-06T06:42:28;95567.03;;;4.61;82.60
13414;BME280;6778;48.136;11.386;2022-11-06T06:44:57;95569.88;;;4.75;82.03
13414;BME280;6778;48.136;11.386;2022-11-06T06:47:26;95565.84;;;4.87;81.67
13414;BME280;6778;48.136;11.386;2022-11-06T06:49:54;95559.13;;;5.15;81.12
13414;BME280;6778;48.136;11.386;2022-11-06T06:52:22;95550.47;;;5.23;80.57
13414;BME280;6778;48.136;11.386;2022-11-06T06:54:51;95550.47;;;5.53;80.50
13414;BME280;6778;48.136;11.386;2022-11-06T06:57:22;95552.63;;;5.93;79.22
13414;BME280;6778;48.136;11.386;2022-11-06T06:59:51;95552.53;;;6.01;78.86
13414;BME280;6778;48.136;11.386;2022-11-06T07:02:20;95549.69;;;6.33;77.85
13414;BME280;6778;48.136;11.386;2022-11-06T07:04:48;95548.69;;;6.34;76.93
13414;BME280;6778;48.136;11.386;2022-11-06T07:07:16;95562.28;;;6.50;77.80
13414;BME280;6778;48.136;11.386;2022-11-06T07:09:45;95559.72;;;7.00;76.54
13414;BME280;6778;48.136;11.386;2022-11-06T07:12:14;95561.63;;;7.41;75.09
13414;BME280;6778;48.136;11.386;2022-11-06T07:14:45;95563.63;;;7.73;72.77
13414;BME280;6778;48.136;11.386;2022-11-06T07:17:14;95564.44;;;8.15;72.41
13414;BME280;6778;48.136;11.386;2022-11-06T07:19:42;95569.19;;;8.53;71.24
13414;BME280;6778;48.136;11.386;2022-11-06T07:22:11;95576.28;;;8.98;73.17
13414;BME280;6778;48.136;11.386;2022-11-06T07:24:40;95589.78;;;9.28;69.02
13414;BME280;6778;48.136;11.386;2022-11-06T07:27:08;95585.97;;;9.38;68.27
13414;BME280;6778;48.136;11.386;2022-11-06T07:29:37;95594.16;;;9.61;68.22
13414;BME280;6778;48.136;11.386;2022-11-06T07:32:09;95584.88;;;9.92;67.22
13414;BME280;6778;48.136;11.386;2022-11-06T07:34:38;95584.88;;;9.92;65.17
13414;BME280;6778;48.136;11.386;2022-11-06T07:37:07;95583.53;;;9.69;65.62
13414;BME280;6778;48.136;11.386;2022-11-06T07:39:35;95589.56;;;9.50;67.07
13414;BME280;6778;48.136;11.386;2022-11-06T07:42:04;95593.22;;;9.29;67.62
13414;BME280;6778;48.136;11.386;2022-11-06T07:44:33;95594.59;;;9.12;68.33
13414;BME280;6778;48.136;11.386;2022-11-06T07:47:01;95587.56;;;8.99;69.02
13414;BME280;6778;48.136;11.386;2022-11-06T07:49:32;95585.31;;;8.69;70.02
13414;BME280;6778;48.136;11.386;2022-11-06T07:52:01;95587.34;;;8.26;71.77
13414;BME280;6778;48.136;11.386;2022-11-06T07:54:29;95576.00;;;8.06;73.09
13414;BME280;6778;48.136;11.386;2022-11-06T07:56:58;95575.41;;;8.04;74.25
13414;BME280;6778;48.136;11.386;2022-11-06T07:59:26;95573.59;;;8.04;74.68
13414;BME280;6778;48.136;11.386;2022-11-06T08:01:55;95558.41;;;8.14;77.30
13414;BME280;6778;48.136;11.386;2022-11-06T08:04:23;95559.72;;;8.45;77.62
13414;BME280;6778;48.136;11.386;2022-11-06T08:06:56;95544.63;;;8.34;76.62
13414;BME280;6778;48.136;11.386;2022-11-06T08:09:24;95541.44;;;8.38;77.31
13414;BME280;6778;48.136;11.386;2022-11-06T08:11:53;95535.47;;;8.58;77.62
13414;BME280;6778;48.136;11.386;2022-11-06T08:14:21;95532.06;;;9.37;77.09
13414;BME280;6778;48.136;11.386;2022-11-06T08:16:50;95535.84;;;10.25;73.02
13414;BME280;6778;48.136;11.386;2022-11-06T08:19:20;95534.56;;;11.29;69.53
13414;BME280;6778;48.136;11.386;2022-11-06T08:21:48;95541.94;;;11.82;66.87
13414;BME280;6778;48.136;11.386;2022-11-06T08:24:19;95526.34;;;12.66;64.98
13414;BME280;6778;48.136;11.386;2022-11-06T08:26:48;95521.09;;;13.19;61.22
13414;BME280;6778;48.136;11.386;2022-11-06T08:29:16;95522.16;;;13.65;59.28
13414;BME280;6778;48.136;11.386;2022-11-06T08:31:45;95514.25;;;14.29;57.74
13414;BME280;6778;48.136;11.386;2022-11-06T08:34:14;95521.53;;;14.50;57.51
13414;BME280;6778;48.136;11.386;2022-11-06T08:36:43;95518.50;;;15.03;55.72
13414;BME280;6778;48.136;11.386;2022-11-06T08:39:15;95515.81;;;15.88;54.63
13414;BME280;6778;48.136;11.386;2022-11-06T08:41:47;95505.25;;;16.58;52.32
13414;BME280;6778;48.136;11.386;2022-11-06T08:44:15;95498.72;;;16.88;50.12
13414;BME280;6778;48.136;11.386;2022-11-06T08:46:44;95504.97;;;17.83;48.26
13414;BME280;6778;48.136;11.386;2022-11-06T08:49:15;95514.28;;;17.91;46.72
13414;BME280;6778;48.136;11.386;2022-11-06T08:51:44;95503.94;;;17.94;46.66
13414;BME280;6778;48.136;11.386;2022-11-06T08:54:12;95490.03;;;18.24;45.81
13414;BME280;6778;48.136;11.386;2022-11-06T08:56:41;95490.91;;;18.61;44.36
13414;BME280;6778;48.136;11.386;2022-11-06T08:59:13;95481.69;;;19.40;42.69
13414;BME280;6778;48.136;11.386;2022-11-06T09:01:41;95479.00;;;19.80;41.69
13414;BME280;6778;48.136;11.386;2022-11-06T09:04:09;95484.00;;;19.92;40.91
13414;BME280;6778;48.136;11.386;2022-11-06T09:06:38;95476.09;;;19.72;41.65
13414;BME280;6778;48.136;11.386;2022-11-06T09:09:06;95467.56;;;19.70;40.48
13414;BME280;6778;48.136;11.386;2022-11-06T09:11:35;95466.00;;;19.43;41.43
13414;BME280;6778;48.136;11.386;2022-11-06T09:14:03;95455.94;;;19.20;41.87
13414;BME280;6778;48.136;11.386;2022-11-06T09:16:34;95456.22;;;19.13;41.64
13414;BME280;6778;48.136;11.386;2022-11-06T09:19:03;95446.41;;;19.24;41.01
13414;BME280;6778;48.136;11.386;2022-11-06T09:21:31;95441.88;;;18.89;42.32
13414;BME280;6778;48.136;11.386;2022-11-06T09:24:00;95439.97;;;18.53;42.54
13414;BME280;6778;48.136;11.386;2022-11-06T09:26:28;95429.97;;;17.83;43.96
13414;BME280;6778;48.136;11.386;2022-11-06T09:28:57;95423.34;;;17.38;45.62
13414;BME280;6778;48.136;11.386;2022-11-06T09:31:25;95416.03;;;17.60;45.98
13414;BME280;6778;48.136;11.386;2022-11-06T09:33:56;95411.84;;;17.69;44.69
13414;BME280;6778;48.136;11.386;2022-11-06T09:36:25;95411.50;;;17.51;45.91
13414;BME280;6778;48.136;11.386;2022-11-06T09:38:54;95409.34;;;18.00;45.57
13414;BME280;6778;48.136;11.386;2022-11-06T09:41:27;95407.84;;;18.55;44.00
13414;BME280;6778;48.136;11.386;2022-11-06T09:44:17;95410.78;;;18.43;43.41
13414;BME280;6778;48.136;11.386;2022-11-06T09:46:50;95408.56;;;18.15;44.47
13414;BME280;6778;48.136;11.386;2022-11-06T09:49:27;95398.75;;;18.05;44.77
13414;BME280;6778;48.136;11.386;2022-11-06T09:52:04;95396.59;;;17.92;45.13
13414;BME280;6778;48.136;11.386;2022-11-06T09:54:39;95391.28;;;17.92;44.81
13414;BME280;6778;48.136;11.386;2022-11-06T09:57:16;95403.06;;;18.32;43.28
13414;BME280;6778;48.136;11.386;2022-11-06T09:59:48;95405.91;;;18.05;43.66
13414;BME280;6778;48.136;11.386;2022-11-06T10:02:27;95382.13;;;17.57;45.03
13414;BME280;6778;48.136;11.386;2022-11-06T10:05:09;95383.88;;;17.36;45.41
13414;BME280;6778;48.136;11.386;2022-11-06T10:07:41;95373.09;;;17.48;44.74
13414;BME280;6778;48.136;11.386;2022-11-06T10:10:15;95363.50;;;17.37;45.52
13414;BME280;6778;48.136;11.386;2022-11-06T10:13:03;95355.59;;;16.95;46.12
13414;BME280;6778;48.136;11.386;2022-11-06T10:15:41;95337.69;;;16.70;47.83
13414;BME280;6778;48.136;11.386;2022-11-06T10:18:21;95337.28;;;16.56;48.02
13414;BME280;6778;48.136;11.386;2022-11-06T10:21:00;95337.84;;;16.26;48.84
13414;BME280;6778;48.136;11.386;2022-11-06T10:23:44;95332.50;;;15.67;50.59
13414;BME280;6778;48.136;11.386;2022-11-06T10:26:17;95320.59;;;15.91;50.29
13414;BME280;6778;48.136;11.386;2022-11-06T10:29:10;95322.03;;;15.99;50.72
13414;BME280;6778;48.136;11.386;2022-11-06T10:31:52;95312.66;;;15.64;50.25
13414;BME280;6778;48.136;11.386;2022-11-06T10:34:30;95308.84;;;15.55;50.46
13414;BME280;6778;48.136;11.386;2022-11-06T10:37:07;95302.66;;;15.22;50.03
13414;BME280;6778;48.136;11.386;2022-11-06T10:39:39;95294.03;;;15.05;52.38
13414;BME280;6778;48.136;11.386;2022-11-06T10:42:14;95297.28;;;15.12;52.70
13414;BME280;6778;48.136;11.386;2022-11-06T10:44:49;95285.41;;;14.71;53.33
13414;BME280;6778;48.136;11.386;2022-11-06T10:47:22;95281.34;;;14.63;54.70
13414;BME280;6778;48.136;11.386;2022-11-06T10:49:54;95281.72;;;14.38;53.97
13414;BME280;6778;48.136;11.386;2022-11-06T10:52:38;95277.19;;;14.17;54.71
13414;BME280;6778;48.136;11.386;2022-11-06T10:55:47;95272.13;;;13.99;54.86
13414;BME280;6778;48.136;11.386;2022-11-06T10:58:26;95274.97;;;13.80;55.92
13414;BME280;6778;48.136;11.386;2022-11-06T11:00:59;95261.47;;;13.60;57.03
13414;BME280;6778;48.136;11.386;2022-11-06T11:03:32;95251.75;;;13.60;56.94
13414;BME280;6778;48.136;11.386;2022-11-06T11:06:01;95241.03;;;13.50;55.97
13414;BME280;6778;48.136;11.386;2022-11-06T11:08:35;95231.22;;;13.05;56.29
13414;BME280;6778;48.136;11.386;2022-11-06T11:11:15;95239.16;;;12.94;58.36
13414;BME280;6778;48.136;11.386;2022-11-06T11:13:46;95224.78;;;13.13;58.39
13414;BME280;6778;48.136;11.386;2022-11-06T11:16:17;95225.19;;;13.33;57.13
13414;BME280;6778;48.136;11.386;2022-11-06T11:18:48;95224.75;;;13.36;58.81
13414;BME280;6778;48.136;11.386;2022-11-06T11:21:24;95221.78;;;12.93;56.42
13414;BME280;6778;48.136;11.386;2022-11-06T11:24:08;95224.72;;;12.44;57.00
13414;BME280;6778;48.136;11.386;2022-11-06T11:26:42;95209.78;;;12.21;58.02
13414;BME280;6778;48.136;11.386;2022-11-06T11:29:14;95217.56;;;12.16;58.94
13414;BME280;6778;48.136;11.386;2022-11-06T11:31:49;95218.13;;;12.07;59.75
13414;BME280;6778;48.136;11.386;2022-11-06T11:34:22;95207.25;;;11.91;60.13
13414;BME280;6778;48.136;11.386;2022-11-06T11:36:56;95204.78;;;12.08;60.64
13414;BME280;6778;48.136;11.386;2022-11-06T11:39:31;95207.97;;;12.10;59.56
13414;BME280;6778;48.136;11.386;2022-11-06T11:42:22;95201.00;;;12.16;59.75
13414;BME280;6778;48.136;11.386;2022-11-06T11:45:16;95190.06;;;12.07;58.69
13414;BME280;6778;48.136;11.386;2022-11-06T11:47:47;95180.91;;;12.10;59.30
13414;BME280;6778;48.136;11.386;2022-11-06T11:50:29;95185.91;;;12.23;59.50
13414;BME280;6778;48.136;11.386;2022-11-06T11:53:03;95174.16;;;11.90;59.12
13414;BME280;6778;48.136;11.386;2022-11-06T11:55:41;95172.44;;;11.84;58.87
13414;BME280;6778;48.136;11.386;2022-11-06T11:58:18;95169.91;;;11.77;59.80
13414;BME280;6778;48.136;11.386;2022-11-06T12:00:52;95163.75;;;11.72;58.56
13414;BME280;6778;48.136;11.386;2022-11-06T12:03:27;95170.59;;;11.73;58.99
13414;BME280;6778;48.136;11.386;2022-11-06T12:06:07;95161.81;;;11.67;59.56
13414;BME280;6778;48.136;11.386;2022-11-06T12:08:39;95149.13;;;11.64;59.58
13414;BME280;6778;48.136;11.386;2022-11-06T12:11:17;95150.66;;;11.72;60.11
13414;BME280;6778;48.136;11.386;2022-11-06T12:14:17;95158.50;;;11.72;59.90
13414;BME280;6778;48.136;11.386;2022-11-06T12:16:49;95151.41;;;11.61;60.97
13414;BME280;6778;48.136;11.386;2022-11-06T12:19:23;95156.00;;;11.65;60.97
13414;BME280;6778;48.136;11.386;2022-11-06T12:21:58;95144.13;;;11.74;62.32
13414;BME280;6778;48.136;11.386;2022-11-06T12:24:35;95152.13;;;11.68;62.34
13414;BME280;6778;48.136;11.386;2022-11-06T12:27:15;95154.75;;;11.80;62.67
13414;BME280;6778;48.136;11.386;2022-11-06T12:29:48;95153.63;;;11.87;61.18
13414;BME280;6778;48.136;11.386;2022-11-06T12:32:25;95146.78;;;11.98;60.92
13414;BME280;6778;48.136;11.386;2022-11-06T12:35:06;95136.63;;;11.90;60.54
13414;BME280;6778;48.136;11.386;2022-11-06T12:37:45;95134.06;;;11.71;61.26
13414;BME280;6778;48.136;11.386;2022-11-06T12:40:19;95140.72;;;11.74;61.30
13414;BME280;6778;48.136;11.386;2022-11-06T12:43:03;95147.59;;;11.87;61.39
13414;BME280;6778;48.136;11.386;2022-11-06T12:45:45;95157.84;;;11.88;60.84
13414;BME280;6778;48.136;11.386;2022-11-06T12:48:32;95161.56;;;11.69;61.02
13414;BME280;6778;48.136;11.386;2022-11-06T12:51:14;95158.03;;;11.75;61.22
13414;BME280;6778;48.136;11.386;2022-11-06T12:53:58;95163.22;;;11.93;61.38
13414;BME280;6778;48.136;11.386;2022-11-06T12:56:39;95163.19;;;12.05;61.25
13414;BME280;6778;48.136;11.386;2022-11-06T12:59:25;95159.00;;;12.16;61.97
13414;BME280;6778;48.136;11.386;2022-11-06T13:02:21;95158.75;;;12.17;60.34
13414;BME280;6778;48.136;11.386;2022-11-06T13:04:58;95150.38;;;12.32;61.77
13414;BME280;6778;48.136;11.386;2022-11-06T13:07:59;95132.41;;;12.52;59.66
13414;BME280;6778;48.136;11.386;2022-11-06T13:10:42;95117.22;;;12.54;59.32
13414;BME280;6778;48.136;11.386;2022-11-06T13:13:30;95112.13;;;12.48;59.12
13414;BME280;6778;48.136;11.386;2022-11-06T13:16:19;95106.84;;;12.48;59.43
13414;BME280;6778;48.136;11.386;2022-11-06T13:18:55;95107.31;;;12.45;59.36
13414;BME280;6778;48.136;11.386;2022-11-06T13:21:37;95105.81;;;12.49;61.54
13414;BME280;6778;48.136;11.386;2022-11-06T13:24:12;95099.78;;;12.48;61.38
13414;BME280;6778;48.136;11.386;2022-11-06T13:26:48;95088.88;;;12.28;61.38
13414;BME280;6778;48.136;11.386;2022-11-06T13:29:23;95088.78;;;12.11;62.28
13414;BME280;6778;48.136;11.386;2022-11-06T13:31:58;95078.84;;;12.13;62.13
13414;BME280;6778;48.136;11.386;2022-11-06T13:34:33;95070.88;;;11.96;62.45
13414;BME280;6778;48.136;11.386;2022-11-06T13:37:07;95066.69;;;11.72;63.52
13414;BME280;6778;48.136;11.386;2022-11-06T13:39:43;95051.84;;;11.54;64.35
13414;BME280;6778;48.136;11.386;2022-11-06T13:42:21;95046.34;;;11.44;64.84
13414;BME280;6778;48.136;11.386;2022-11-06T13:44:52;95042.34;;;11.65;64.97
13414;BME280;6778;48.136;11.386;2022-11-06T13:47:34;95031.66;;;11.66;65.07
13414;BME280;6778;48.136;11.386;2022-11-06T13:50:15;95026.28;;;11.85;65.03
13414;BME280;6778;48.136;11.386;2022-11-06T13:52:55;95026.97;;;11.68;65.02